sensor_id;sensor_type;location;lat;lon;timestamp;pressure;altitude;pressure_sealevel;temperature;humidity
48095;BME280;33874;52.070;-0.516;2023-05-24T00:01:03;102230.86;;;12.65;59.76
48095;BME280;33874;52.070;-0.516;2023-05-24T00:07:08;102239.02;;;12.65;59.99
48095;BME280;33874;52.070;-0.516;2023-05-24T00:09:51;102239.92;;;12.62;60.00
48095;BME280;33874;52.070;-0.516;2023-05-24T00:12:52;102237.42;;;12.60;60.00
48095;BME280;33874;52.070;-0.516;2023-05-24T00:15:31;102236.38;;;12.57;60.09
48095;BME280;33874;52.070;-0.516;2023-05-24T00:18:23;102236.02;;;12.55;60.19
48095;BME280;33874;52.070;-0.516;2023-05-24T00:33:38;102235.67;;;12.32;60.17
48095;BME280;33874;52.070;-0.516;2023-05-24T00:36:14;102236.27;;;12.26;60.31
48095;BME280;33874;52.070;-0.516;2023-05-24T00:39:11;102244.80;;;12.19;60.42
48095;BME280;33874;52.070;-0.516;2023-05-24T00:41:52;102239.83;;;12.15;60.57
48095;BME280;33874;52.070;-0.516;2023-05-24T01:00:16;102226.72;;;11.78;61.21
48095;BME280;33874;52.070;-0.516;2023-05-24T01:18:34;102230.94;;;11.58;61.79
48095;BME280;33874;52.070;-0.516;2023-05-24T01:21:41;102233.19;;;11.55;61.90
48095;BME280;33874;52.070;-0.516;2023-05-24T01:43:21;102238.70;;;11.24;62.58
48095;BME280;33874;52.070;-0.516;2023-05-24T01:52:27;102231.02;;;11.21;62.89
48095;BME280;33874;52.070;-0.516;2023-05-24T01:58:43;102221.73;;;11.20;63.16
48095;BME280;33874;52.070;-0.516;2023-05-24T02:01:33;102218.38;;;11.20;63.29
48095;BME280;33874;52.070;-0.516;2023-05-24T02:10:27;102200.39;;;11.21;63.56
48095;BME280;33874;52.070;-0.516;2023-05-24T02:22:06;102204.91;;;11.16;63.46
48095;BME280;33874;52.070;-0.516;2023-05-24T02:28:07;102210.04;;;11.10;63.37
48095;BME280;33874;52.070;-0.516;2023-05-24T02:31:19;102208.33;;;11.04;63.43
48095;BME280;33874;52.070;-0.516;2023-05-24T02:37:21;102212.02;;;10.90;63.40
48095;BME280;33874;52.070;-0.516;2023-05-24T02:40:01;102212.10;;;10.83;63.45
48095;BME280;33874;52.070;-0.516;2023-05-24T02:42:54;102212.46;;;10.75;63.54
48095;BME280;33874;52.070;-0.516;2023-05-24T02:45:33;102215.04;;;10.70;63.73
48095;BME280;33874;52.070;-0.516;2023-05-24T02:48:23;102212.70;;;10.65;63.83
48095;BME280;33874;52.070;-0.516;2023-05-24T02:54:02;102208.95;;;10.58;63.96
48095;BME280;33874;52.070;-0.516;2023-05-24T03:05:46;102221.13;;;10.37;64.31
48095;BME280;33874;52.070;-0.516;2023-05-24T03:08:20;102220.42;;;10.28;64.32
48095;BME280;33874;52.070;-0.516;2023-05-24T03:14:06;102218.36;;;10.15;64.61
48095;BME280;33874;52.070;-0.516;2023-05-24T03:16:38;102217.67;;;10.12;64.84
48095;BME280;33874;52.070;-0.516;2023-05-24T03:22:09;102227.84;;;10.06;64.90
48095;BME280;33874;52.070;-0.516;2023-05-24T03:27:56;102234.06;;;10.02;65.08
48095;BME280;33874;52.070;-0.516;2023-05-24T03:34:09;102227.58;;;9.87;65.26
48095;BME280;33874;52.070;-0.516;2023-05-24T03:39:50;102220.48;;;9.73;65.94
48095;BME280;33874;52.070;-0.516;2023-05-24T03:45:40;102207.79;;;9.68;66.07
48095;BME280;33874;52.070;-0.516;2023-05-24T03:48:15;102207.38;;;9.66;66.22
48095;BME280;33874;52.070;-0.516;2023-05-24T03:50:51;102201.55;;;9.63;66.43
48095;BME280;33874;52.070;-0.516;2023-05-24T03:53:34;102199.45;;;9.60;66.50
48095;BME280;33874;52.070;-0.516;2023-05-24T03:56:03;102196.26;;;9.61;66.69
48095;BME280;33874;52.070;-0.516;2023-05-24T03:58:42;102196.22;;;9.61;66.77
48095;BME280;33874;52.070;-0.516;2023-05-24T04:01:27;102197.48;;;9.64;66.86
48095;BME280;33874;52.070;-0.516;2023-05-24T04:04:08;102196.45;;;9.67;67.05
48095;BME280;33874;52.070;-0.516;2023-05-24T04:06:59;102196.57;;;9.71;67.18
48095;BME280;33874;52.070;-0.516;2023-05-24T04:09:37;102195.81;;;9.78;67.33
48095;BME280;33874;52.070;-0.516;2023-05-24T04:15:28;102196.73;;;9.95;67.51
48095;BME280;33874;52.070;-0.516;2023-05-24T04:18:28;102196.11;;;10.02;67.48
48095;BME280;33874;52.070;-0.516;2023-05-24T04:27:24;102202.66;;;10.22;67.18
48095;BME280;33874;52.070;-0.516;2023-05-24T04:33:29;102200.70;;;10.35;66.99
48095;BME280;33874;52.070;-0.516;2023-05-24T04:38:54;102193.27;;;10.44;66.89
48095;BME280;33874;52.070;-0.516;2023-05-24T04:41:32;102199.08;;;10.47;66.80
48095;BME280;33874;52.070;-0.516;2023-05-24T04:44:23;102200.23;;;10.48;66.71
48095;BME280;33874;52.070;-0.516;2023-05-24T04:47:37;102198.17;;;10.50;66.74
48095;BME280;33874;52.070;-0.516;2023-05-24T04:50:17;102200.67;;;10.55;67.00
48095;BME280;33874;52.070;-0.516;2023-05-24T04:53:29;102201.81;;;10.62;67.01
48095;BME280;33874;52.070;-0.516;2023-05-24T04:56:23;102204.58;;;10.72;67.07
48095;BME280;33874;52.070;-0.516;2023-05-24T04:58:53;102202.84;;;10.77;66.96
48095;BME280;33874;52.070;-0.516;2023-05-24T05:07:34;102207.41;;;11.07;67.04
48095;BME280;33874;52.070;-0.516;2023-05-24T05:10:05;102209.45;;;11.20;66.99
48095;BME280;33874;52.070;-0.516;2023-05-24T05:12:34;102209.24;;;11.28;66.85
48095;BME280;33874;52.070;-0.516;2023-05-24T05:15:04;102218.45;;;11.33;66.65
48095;BME280;33874;52.070;-0.516;2023-05-24T05:17:38;102219.83;;;11.39;66.76
48095;BME280;33874;52.070;-0.516;2023-05-24T05:20:11;102220.52;;;11.50;66.88
48095;BME280;33874;52.070;-0.516;2023-05-24T05:23:00;102215.24;;;11.60;66.65
48095;BME280;33874;52.070;-0.516;2023-05-24T05:25:41;102209.17;;;11.67;66.41
48095;BME280;33874;52.070;-0.516;2023-05-24T05:28:33;102208.09;;;11.72;66.36
48095;BME280;33874;52.070;-0.516;2023-05-24T05:31:04;102210.86;;;11.87;66.16
48095;BME280;33874;52.070;-0.516;2023-05-24T05:33:54;102202.64;;;12.35;65.58
48095;BME280;33874;52.070;-0.516;2023-05-24T05:39:08;102202.48;;;13.93;64.42
48095;BME280;33874;52.070;-0.516;2023-05-24T05:41:37;102200.89;;;15.17;62.64
48095;BME280;33874;52.070;-0.516;2023-05-24T05:46:59;102202.67;;;17.44;58.86
48095;BME280;33874;52.070;-0.516;2023-05-24T05:49:48;102207.35;;;18.43;57.11
48095;BME280;33874;52.070;-0.516;2023-05-24T05:52:21;102215.05;;;19.20;55.73
48095;BME280;33874;52.070;-0.516;2023-05-24T05:54:57;102212.34;;;19.88;54.56
48095;BME280;33874;52.070;-0.516;2023-05-24T05:57:28;102213.71;;;20.69;53.83
48095;BME280;33874;52.070;-0.516;2023-05-24T05:59:59;102215.69;;;21.35;52.60
48095;BME280;33874;52.070;-0.516;2023-05-24T06:02:49;102217.20;;;21.92;51.55
48095;BME280;33874;52.070;-0.516;2023-05-24T06:05:19;102215.04;;;22.44;50.55
48095;BME280;33874;52.070;-0.516;2023-05-24T06:07:51;102215.09;;;22.73;49.56
48095;BME280;33874;52.070;-0.516;2023-05-24T06:13:08;102222.87;;;22.96;47.34
48095;BME280;33874;52.070;-0.516;2023-05-24T06:15:46;102224.04;;;23.18;47.01
48095;BME280;33874;52.070;-0.516;2023-05-24T06:18:15;102225.43;;;23.41;46.55
48095;BME280;33874;52.070;-0.516;2023-05-24T06:20:43;102226.00;;;23.77;46.13
48095;BME280;33874;52.070;-0.516;2023-05-24T06:23:22;102223.70;;;24.09;45.05
48095;BME280;33874;52.070;-0.516;2023-05-24T06:25:51;102219.30;;;24.34;45.28
48095;BME280;33874;52.070;-0.516;2023-05-24T06:28:20;102211.95;;;24.72;44.50
48095;BME280;33874;52.070;-0.516;2023-05-24T06:30:52;102211.77;;;24.86;43.42
48095;BME280;33874;52.070;-0.516;2023-05-24T06:33:22;102210.92;;;24.86;42.98
48095;BME280;33874;52.070;-0.516;2023-05-24T06:35:51;102215.96;;;25.02;42.84
48095;BME280;33874;52.070;-0.516;2023-05-24T06:38:20;102224.44;;;25.18;42.29
48095;BME280;33874;52.070;-0.516;2023-05-24T06:40:49;102226.46;;;25.25;42.27
48095;BME280;33874;52.070;-0.516;2023-05-24T06:43:42;102229.33;;;25.46;42.24
48095;BME280;33874;52.070;-0.516;2023-05-24T06:46:07;102226.14;;;25.70;41.71
48095;BME280;33874;52.070;-0.516;2023-05-24T06:48:39;102227.63;;;25.90;41.19
48095;BME280;33874;52.070;-0.516;2023-05-24T06:51:08;102226.42;;;25.97;40.86
48095;BME280;33874;52.070;-0.516;2023-05-24T06:53:37;102222.39;;;26.21;41.27
48095;BME280;33874;52.070;-0.516;2023-05-24T06:56:08;102224.82;;;26.44;40.75
48095;BME280;33874;52.070;-0.516;2023-05-24T06:58:57;102228.66;;;26.44;40.21
48095;BME280;33874;52.070;-0.516;2023-05-24T07:01:26;102225.17;;;26.34;39.96
48095;BME280;33874;52.070;-0.516;2023-05-24T07:03:56;102232.80;;;26.05;39.71
48095;BME280;33874;52.070;-0.516;2023-05-24T07:06:25;102236.61;;;25.93;39.48
48095;BME280;33874;52.070;-0.516;2023-05-24T07:08:57;102230.27;;;25.76;39.05
48095;BME280;33874;52.070;-0.516;2023-05-24T07:11:25;102221.36;;;25.71;39.71
48095;BME280;33874;52.070;-0.516;2023-05-24T07:14:05;102222.84;;;25.75;39.78
48095;BME280;33874;52.070;-0.516;2023-05-24T07:16:34;102233.58;;;25.56;39.81
48095;BME280;33874;52.070;-0.516;2023-05-24T07:19:05;102239.23;;;25.35;39.04
48095;BME280;33874;52.070;-0.516;2023-05-24T07:21:34;102243.17;;;25.00;39.15
48095;BME280;33874;52.070;-0.516;2023-05-24T07:24:05;102245.02;;;24.65;39.34
48095;BME280;33874;52.070;-0.516;2023-05-24T07:26:34;102248.20;;;24.49;39.62
48095;BME280;33874;52.070;-0.516;2023-05-24T07:29:02;102248.71;;;24.48;39.91
48095;BME280;33874;52.070;-0.516;2023-05-24T07:31:33;102248.88;;;24.48;39.90
48095;BME280;33874;52.070;-0.516;2023-05-24T07:34:25;102252.90;;;24.40;40.21
48095;BME280;33874;52.070;-0.516;2023-05-24T07:36:55;102253.14;;;23.97;40.16
48095;BME280;33874;52.070;-0.516;2023-05-24T07:39:29;102252.10;;;23.66;40.87
48095;BME280;33874;52.070;-0.516;2023-05-24T07:42:21;102249.34;;;23.47;41.38
48095;BME280;33874;52.070;-0.516;2023-05-24T07:44:52;102247.31;;;22.86;42.23
48095;BME280;33874;52.070;-0.516;2023-05-24T07:47:21;102251.83;;;22.16;42.91
48095;BME280;33874;52.070;-0.516;2023-05-24T07:50:11;102253.52;;;21.48;44.11
48095;BME280;33874;52.070;-0.516;2023-05-24T07:52:39;102256.67;;;20.88;45.04
48095;BME280;33874;52.070;-0.516;2023-05-24T07:55:07;102258.90;;;20.46;45.96
48095;BME280;33874;52.070;-0.516;2023-05-24T07:57:46;102254.95;;;20.13;46.81
48095;BME280;33874;52.070;-0.516;2023-05-24T08:00:24;102250.63;;;19.91;47.47
48095;BME280;33874;52.070;-0.516;2023-05-24T08:03:06;102247.92;;;19.68;47.64
48095;BME280;33874;52.070;-0.516;2023-05-24T08:08:55;102246.33;;;19.46;48.38
48095;BME280;33874;52.070;-0.516;2023-05-24T08:11:23;102244.20;;;19.44;48.77
48095;BME280;33874;52.070;-0.516;2023-05-24T08:13:55;102242.57;;;19.44;48.90
48095;BME280;33874;52.070;-0.516;2023-05-24T08:16:34;102239.16;;;19.34;49.36
48095;BME280;33874;52.070;-0.516;2023-05-24T08:19:05;102238.02;;;19.29;49.80
48095;BME280;33874;52.070;-0.516;2023-05-24T08:21:36;102237.46;;;19.28;50.00
48095;BME280;33874;52.070;-0.516;2023-05-24T08:24:15;102232.02;;;19.32;50.26
48095;BME280;33874;52.070;-0.516;2023-05-24T08:26:46;102228.04;;;19.33;50.22
48095;BME280;33874;52.070;-0.516;2023-05-24T08:29:14;102227.71;;;19.20;50.10
48095;BME280;33874;52.070;-0.516;2023-05-24T08:31:47;102225.14;;;19.17;50.37
48095;BME280;33874;52.070;-0.516;2023-05-24T08:37:30;102218.72;;;19.26;50.59
48095;BME280;33874;52.070;-0.516;2023-05-24T08:40:00;102213.06;;;19.18;50.23
48095;BME280;33874;52.070;-0.516;2023-05-24T08:42:31;102213.60;;;19.13;50.69
48095;BME280;33874;52.070;-0.516;2023-05-24T08:45:22;102218.02;;;19.26;50.83
48095;BME280;33874;52.070;-0.516;2023-05-24T08:47:52;102218.16;;;19.27;50.68
48095;BME280;33874;52.070;-0.516;2023-05-24T08:50:23;102216.86;;;19.14;50.53
48095;BME280;33874;52.070;-0.516;2023-05-24T08:52:57;102219.42;;;19.13;50.67
48095;BME280;33874;52.070;-0.516;2023-05-24T08:55:35;102219.85;;;18.98;50.48
48095;BME280;33874;52.070;-0.516;2023-05-24T08:58:21;102228.78;;;18.87;50.70
48095;BME280;33874;52.070;-0.516;2023-05-24T09:01:00;102229.15;;;18.68;50.56
48095;BME280;33874;52.070;-0.516;2023-05-24T09:03:34;102223.89;;;18.49;50.82
48095;BME280;33874;52.070;-0.516;2023-05-24T09:06:08;102226.74;;;18.50;51.28
48095;BME280;33874;52.070;-0.516;2023-05-24T09:08:42;102224.02;;;18.49;51.74
48095;BME280;33874;52.070;-0.516;2023-05-24T09:11:13;102233.80;;;18.72;51.68
48095;BME280;33874;52.070;-0.516;2023-05-24T09:19:28;102234.52;;;19.15;51.37
48095;BME280;33874;52.070;-0.516;2023-05-24T09:21:57;102234.03;;;19.30;51.30
48095;BME280;33874;52.070;-0.516;2023-05-24T09:24:29;102232.95;;;19.48;50.76
48095;BME280;33874;52.070;-0.516;2023-05-24T09:27:04;102230.52;;;19.60;50.43
48095;BME280;33874;52.070;-0.516;2023-05-24T09:29:38;102228.88;;;19.80;50.34
48095;BME280;33874;52.070;-0.516;2023-05-24T09:35:21;102226.16;;;19.80;49.72
48095;BME280;33874;52.070;-0.516;2023-05-24T09:37:58;102223.69;;;19.84;49.59
48095;BME280;33874;52.070;-0.516;2023-05-24T09:40:36;102218.09;;;19.91;49.40
48095;BME280;33874;52.070;-0.516;2023-05-24T09:43:08;102217.02;;;20.02;49.82
48095;BME280;33874;52.070;-0.516;2023-05-24T09:45:39;102218.41;;;20.25;49.87
48095;BME280;33874;52.070;-0.516;2023-05-24T09:48:12;102214.11;;;20.20;49.61
48095;BME280;33874;52.070;-0.516;2023-05-24T09:50:49;102215.04;;;20.31;49.50
48095;BME280;33874;52.070;-0.516;2023-05-24T09:53:52;102213.00;;;20.39;49.55
48095;BME280;33874;52.070;-0.516;2023-05-24T09:56:52;102216.27;;;20.18;49.08
48095;BME280;33874;52.070;-0.516;2023-05-24T09:59:22;102217.09;;;20.01;49.20
48095;BME280;33874;52.070;-0.516;2023-05-24T10:01:55;102213.61;;;19.93;49.21
48095;BME280;33874;52.070;-0.516;2023-05-24T10:04:32;102209.80;;;19.83;48.78
48095;BME280;33874;52.070;-0.516;2023-05-24T10:07:01;102212.18;;;19.76;48.99
48095;BME280;33874;52.070;-0.516;2023-05-24T10:09:40;102203.62;;;19.93;49.56
48095;BME280;33874;52.070;-0.516;2023-05-24T10:12:10;102201.57;;;20.10;49.21
48095;BME280;33874;52.070;-0.516;2023-05-24T10:14:39;102199.25;;;20.24;49.18
48095;BME280;33874;52.070;-0.516;2023-05-24T10:17:09;102205.79;;;20.19;48.84
48095;BME280;33874;52.070;-0.516;2023-05-24T10:19:41;102209.61;;;20.13;48.77
48095;BME280;33874;52.070;-0.516;2023-05-24T10:22:10;102205.19;;;20.18;48.60
48095;BME280;33874;52.070;-0.516;2023-05-24T10:24:52;102201.34;;;20.17;48.92
48095;BME280;33874;52.070;-0.516;2023-05-24T10:27:27;102199.41;;;20.39;48.95
48095;BME280;33874;52.070;-0.516;2023-05-24T10:30:11;102194.06;;;20.46;48.09
48095;BME280;33874;52.070;-0.516;2023-05-24T10:32:44;102193.69;;;20.60;48.36
48095;BME280;33874;52.070;-0.516;2023-05-24T10:35:17;102193.67;;;20.65;47.84
48095;BME280;33874;52.070;-0.516;2023-05-24T10:37:49;102185.86;;;20.51;47.79
48095;BME280;33874;52.070;-0.516;2023-05-24T10:40:46;102178.70;;;20.48;48.43
48095;BME280;33874;52.070;-0.516;2023-05-24T10:43:13;102176.35;;;20.63;48.49
48095;BME280;33874;52.070;-0.516;2023-05-24T10:45:48;102177.17;;;20.79;48.54
48095;BME280;33874;52.070;-0.516;2023-05-24T10:51:03;102180.19;;;21.03;47.38
48095;BME280;33874;52.070;-0.516;2023-05-24T10:53:55;102174.77;;;20.95;47.38
48095;BME280;33874;52.070;-0.516;2023-05-24T10:56:50;102178.58;;;20.70;47.38
48095;BME280;33874;52.070;-0.516;2023-05-24T10:59:32;102180.39;;;20.70;47.74
48095;BME280;33874;52.070;-0.516;2023-05-24T11:04:52;102180.36;;;20.91;47.52
48095;BME280;33874;52.070;-0.516;2023-05-24T11:07:24;102178.96;;;21.11;46.88
48095;BME280;33874;52.070;-0.516;2023-05-24T11:09:58;102175.77;;;21.19;47.33
48095;BME280;33874;52.070;-0.516;2023-05-24T11:12:38;102173.25;;;21.08;47.15
48095;BME280;33874;52.070;-0.516;2023-05-24T11:18:22;102178.84;;;21.01;47.00
48095;BME280;33874;52.070;-0.516;2023-05-24T11:20:55;102179.48;;;21.11;47.16
48095;BME280;33874;52.070;-0.516;2023-05-24T11:23:25;102175.19;;;21.18;47.21
48095;BME280;33874;52.070;-0.516;2023-05-24T11:25:55;102170.30;;;21.16;47.05
48095;BME280;33874;52.070;-0.516;2023-05-24T11:28:25;102164.54;;;21.19;47.17
48095;BME280;33874;52.070;-0.516;2023-05-24T11:30:54;102160.05;;;21.21;47.12
48095;BME280;33874;52.070;-0.516;2023-05-24T11:33:25;102165.13;;;21.15;47.26
48095;BME280;33874;52.070;-0.516;2023-05-24T11:35:55;102160.61;;;21.22;47.50
48095;BME280;33874;52.070;-0.516;2023-05-24T11:38:40;102164.15;;;21.43;47.10
48095;BME280;33874;52.070;-0.516;2023-05-24T11:41:10;102160.21;;;21.57;46.38
48095;BME280;33874;52.070;-0.516;2023-05-24T11:43:40;102161.82;;;21.70;46.47
48095;BME280;33874;52.070;-0.516;2023-05-24T11:46:09;102163.27;;;21.83;46.21
48095;BME280;33874;52.070;-0.516;2023-05-24T11:49:01;102162.91;;;21.95;45.89
48095;BME280;33874;52.070;-0.516;2023-05-24T11:54:25;102164.91;;;21.72;45.73
48095;BME280;33874;52.070;-0.516;2023-05-24T11:56:58;102165.30;;;21.76;45.67
48095;BME280;33874;52.070;-0.516;2023-05-24T11:59:55;102169.10;;;21.61;45.67
48095;BME280;33874;52.070;-0.516;2023-05-24T12:02:31;102174.75;;;21.41;45.41
48095;BME280;33874;52.070;-0.516;2023-05-24T12:05:06;102175.11;;;21.37;45.50
48095;BME280;33874;52.070;-0.516;2023-05-24T12:10:50;102175.78;;;21.75;45.14
48095;BME280;33874;52.070;-0.516;2023-05-24T12:13:20;102174.89;;;21.90;44.78
48095;BME280;33874;52.070;-0.516;2023-05-24T12:15:55;102168.49;;;22.00;44.77
48095;BME280;33874;52.070;-0.516;2023-05-24T12:18:35;102165.52;;;22.04;44.84
48095;BME280;33874;52.070;-0.516;2023-05-24T12:21:10;102163.87;;;22.13;44.58
48095;BME280;33874;52.070;-0.516;2023-05-24T12:23:40;102161.60;;;22.16;43.88
48095;BME280;33874;52.070;-0.516;2023-05-24T12:26:16;102154.04;;;22.19;43.85
48095;BME280;33874;52.070;-0.516;2023-05-24T12:28:48;102160.98;;;22.23;43.61
48095;BME280;33874;52.070;-0.516;2023-05-24T12:31:25;102156.89;;;22.27;43.26
48095;BME280;33874;52.070;-0.516;2023-05-24T12:36:58;102158.72;;;22.45;42.90
48095;BME280;33874;52.070;-0.516;2023-05-24T12:39:47;102152.85;;;22.49;42.90
48095;BME280;33874;52.070;-0.516;2023-05-24T12:42:16;102155.33;;;22.61;42.94
48095;BME280;33874;52.070;-0.516;2023-05-24T12:45:05;102154.67;;;22.61;42.54
48095;BME280;33874;52.070;-0.516;2023-05-24T12:47:58;102153.29;;;22.56;42.74
48095;BME280;33874;52.070;-0.516;2023-05-24T12:50:34;102150.42;;;22.66;42.91
48095;BME280;33874;52.070;-0.516;2023-05-24T12:53:08;102149.35;;;22.70;42.28
48095;BME280;33874;52.070;-0.516;2023-05-24T12:55:56;102149.92;;;22.64;42.10
48095;BME280;33874;52.070;-0.516;2023-05-24T13:01:29;102149.25;;;22.82;41.77
48095;BME280;33874;52.070;-0.516;2023-05-24T13:04:03;102145.64;;;22.93;41.81
48095;BME280;33874;52.070;-0.516;2023-05-24T13:06:35;102150.61;;;23.01;41.21
48095;BME280;33874;52.070;-0.516;2023-05-24T13:09:27;102149.20;;;22.96;40.91
48095;BME280;33874;52.070;-0.516;2023-05-24T13:12:10;102140.70;;;23.06;41.26
48095;BME280;33874;52.070;-0.516;2023-05-24T13:14:50;102144.94;;;23.19;41.41
48095;BME280;33874;52.070;-0.516;2023-05-24T13:17:34;102146.98;;;23.23;41.30
48095;BME280;33874;52.070;-0.516;2023-05-24T13:20:25;102139.88;;;23.26;41.16
48095;BME280;33874;52.070;-0.516;2023-05-24T13:22:58;102133.29;;;23.33;41.10
48095;BME280;33874;52.070;-0.516;2023-05-24T13:25:40;102133.15;;;23.49;41.29
48095;BME280;33874;52.070;-0.516;2023-05-24T13:28:24;102131.23;;;23.58;40.65
48095;BME280;33874;52.070;-0.516;2023-05-24T13:30:57;102137.59;;;23.60;40.74
48095;BME280;33874;52.070;-0.516;2023-05-24T13:33:27;102137.36;;;23.53;40.08
48095;BME280;33874;52.070;-0.516;2023-05-24T13:36:26;102138.93;;;23.54;40.39
48095;BME280;33874;52.070;-0.516;2023-05-24T13:39:17;102141.02;;;23.66;40.38
48095;BME280;33874;52.070;-0.516;2023-05-24T13:42:20;102142.84;;;23.70;39.62
48095;BME280;33874;52.070;-0.516;2023-05-24T13:44:51;102138.30;;;23.50;39.49
48095;BME280;33874;52.070;-0.516;2023-05-24T13:47:55;102138.59;;;23.62;39.94
48095;BME280;33874;52.070;-0.516;2023-05-24T13:50:36;102129.36;;;23.67;39.82
48095;BME280;33874;52.070;-0.516;2023-05-24T13:56:44;102133.09;;;23.90;39.63
48095;BME280;33874;52.070;-0.516;2023-05-24T13:59:25;102132.53;;;23.93;39.14
48095;BME280;33874;52.070;-0.516;2023-05-24T14:02:19;102126.75;;;23.97;39.05
48095;BME280;33874;52.070;-0.516;2023-05-24T14:04:55;102125.32;;;24.01;38.63
48095;BME280;33874;52.070;-0.516;2023-05-24T14:07:56;102126.02;;;24.05;38.45
48095;BME280;33874;52.070;-0.516;2023-05-24T14:10:45;102123.06;;;24.10;38.18
48095;BME280;33874;52.070;-0.516;2023-05-24T14:13:17;102119.71;;;24.06;38.05
48095;BME280;33874;52.070;-0.516;2023-05-24T14:19:05;102117.15;;;24.01;38.06
48095;BME280;33874;52.070;-0.516;2023-05-24T14:21:43;102126.36;;;24.02;38.23
48095;BME280;33874;52.070;-0.516;2023-05-24T14:24:17;102131.30;;;23.90;38.05
48095;BME280;33874;52.070;-0.516;2023-05-24T14:27:05;102127.97;;;23.87;38.23
48095;BME280;33874;52.070;-0.516;2023-05-24T14:29:45;102128.60;;;23.79;38.17
48095;BME280;33874;52.070;-0.516;2023-05-24T14:32:34;102125.09;;;23.73;37.86
48095;BME280;33874;52.070;-0.516;2023-05-24T14:35:13;102126.52;;;23.78;38.20
48095;BME280;33874;52.070;-0.516;2023-05-24T14:38:09;102129.02;;;23.99;38.67
48095;BME280;33874;52.070;-0.516;2023-05-24T14:40:36;102115.22;;;24.11;38.40
48095;BME280;33874;52.070;-0.516;2023-05-24T14:43:21;102117.05;;;24.21;38.12
48095;BME280;33874;52.070;-0.516;2023-05-24T14:46:00;102116.34;;;24.24;38.05
48095;BME280;33874;52.070;-0.516;2023-05-24T14:48:33;102116.56;;;24.16;37.51
48095;BME280;33874;52.070;-0.516;2023-05-24T14:51:05;102116.52;;;24.19;37.94
48095;BME280;33874;52.070;-0.516;2023-05-24T14:53:42;102115.06;;;24.25;37.51
48095;BME280;33874;52.070;-0.516;2023-05-24T14:56:18;102111.54;;;24.39;37.65
48095;BME280;33874;52.070;-0.516;2023-05-24T14:58:53;102116.73;;;24.47;35.92
48095;BME280;33874;52.070;-0.516;2023-05-24T15:01:45;102114.67;;;24.51;35.81
48095;BME280;33874;52.070;-0.516;2023-05-24T15:04:43;102113.60;;;24.52;35.20
48095;BME280;33874;52.070;-0.516;2023-05-24T15:07:54;102116.60;;;24.62;35.21
48095;BME280;33874;52.070;-0.516;2023-05-24T15:10:53;102115.46;;;24.76;35.03
48095;BME280;33874;52.070;-0.516;2023-05-24T15:13:24;102120.10;;;24.87;35.13
48095;BME280;33874;52.070;-0.516;2023-05-24T15:19:06;102107.65;;;24.64;34.94
48095;BME280;33874;52.070;-0.516;2023-05-24T15:21:46;102108.45;;;24.48;35.33
48095;BME280;33874;52.070;-0.516;2023-05-24T15:24:36;102109.98;;;24.46;35.61
48095;BME280;33874;52.070;-0.516;2023-05-24T15:27:27;102111.79;;;24.49;35.45
48095;BME280;33874;52.070;-0.516;2023-05-24T15:30:39;102109.16;;;24.61;35.52
48095;BME280;33874;52.070;-0.516;2023-05-24T15:33:13;102110.04;;;24.65;35.46
48095;BME280;33874;52.070;-0.516;2023-05-24T15:38:48;102105.02;;;24.87;35.64
48095;BME280;33874;52.070;-0.516;2023-05-24T15:41:48;102102.73;;;24.90;35.83
48095;BME280;33874;52.070;-0.516;2023-05-24T15:44:39;102103.73;;;25.02;35.77
48095;BME280;33874;52.070;-0.516;2023-05-24T15:50:12;102103.10;;;25.10;35.13
48095;BME280;33874;52.070;-0.516;2023-05-24T15:52:59;102107.05;;;25.26;34.90
48095;BME280;33874;52.070;-0.516;2023-05-24T15:55:47;102099.48;;;25.34;34.63
48095;BME280;33874;52.070;-0.516;2023-05-24T16:01:11;102101.05;;;25.54;34.72
48095;BME280;33874;52.070;-0.516;2023-05-24T16:03:54;102099.67;;;25.60;34.57
48095;BME280;33874;52.070;-0.516;2023-05-24T16:06:44;102094.04;;;25.75;34.75
48095;BME280;33874;52.070;-0.516;2023-05-24T16:09:16;102095.23;;;25.83;34.92
48095;BME280;33874;52.070;-0.516;2023-05-24T16:12:06;102096.80;;;25.95;35.12
48095;BME280;33874;52.070;-0.516;2023-05-24T16:18:31;102092.35;;;26.11;34.56
48095;BME280;33874;52.070;-0.516;2023-05-24T16:24:13;102099.46;;;25.88;34.06
48095;BME280;33874;52.070;-0.516;2023-05-24T16:29:54;102094.58;;;25.69;33.85
48095;BME280;33874;52.070;-0.516;2023-05-24T16:35:52;102091.45;;;25.77;34.23
48095;BME280;33874;52.070;-0.516;2023-05-24T16:38:31;102089.92;;;25.91;34.02
48095;BME280;33874;52.070;-0.516;2023-05-24T16:41:17;102086.73;;;25.97;34.04
48095;BME280;33874;52.070;-0.516;2023-05-24T16:50:17;102078.55;;;26.02;33.52
48095;BME280;33874;52.070;-0.516;2023-05-24T16:53:06;102077.13;;;26.10;33.97
48095;BME280;33874;52.070;-0.516;2023-05-24T17:10:12;102079.09;;;26.11;33.58
48095;BME280;33874;52.070;-0.516;2023-05-24T17:13:12;102071.61;;;26.11;33.48
48095;BME280;33874;52.070;-0.516;2023-05-24T17:24:42;102076.37;;;25.90;34.00
48095;BME280;33874;52.070;-0.516;2023-05-24T17:30:42;102078.02;;;25.88;33.95
48095;BME280;33874;52.070;-0.516;2023-05-24T17:36:45;102083.02;;;25.62;33.77
48095;BME280;33874;52.070;-0.516;2023-05-24T17:42:45;102082.73;;;25.49;34.15
48095;BME280;33874;52.070;-0.516;2023-05-24T17:51:33;102099.33;;;25.13;34.01
48095;BME280;33874;52.070;-0.516;2023-05-24T17:57:22;102103.50;;;24.87;34.26
48095;BME280;33874;52.070;-0.516;2023-05-24T18:00:11;102104.30;;;24.81;34.37
48095;BME280;33874;52.070;-0.516;2023-05-24T18:22:04;102112.78;;;24.39;34.77
48095;BME280;33874;52.070;-0.516;2023-05-24T18:31:10;102109.02;;;24.29;34.72
48095;BME280;33874;52.070;-0.516;2023-05-24T19:04:43;102150.65;;;22.91;40.78
48095;BME280;33874;52.070;-0.516;2023-05-24T19:19:40;102163.77;;;21.24;43.03
48095;BME280;33874;52.070;-0.516;2023-05-24T19:28:38;102175.02;;;20.66;44.35
48095;BME280;33874;52.070;-0.516;2023-05-24T20:40:45;102230.04;;;18.04;50.01